Time;durP1;ratioP1;P1;durP2;ratioP2;P2;SDS_P1;SDS_P2;PMS_P1;PMS_P2;Temp;Humidity;BMP_temperature;BMP_pressure;BME280_temperature;BME280_humidity;BME280_pressure;Samples;Min_cycle;Max_cycle;Signal;HPM_P1;HPM_P2
2021/03/18 00:01:53;;;;;;;15.80;8.23;;;;;;;3.06;64.62;98692.78;1720522;82;21175;-68
2021/03/18 00:04:21;;;;;;;17.82;9.55;;;;;;;3.07;64.62;98695.78;1667685;84;21515;-68
2021/03/18 00:06:48;;;;;;;21.05;9.40;;;;;;;3.09;64.75;98683.93;1714185;82;21648;-68
2021/03/18 00:09:18;;;;;;;20.00;8.45;;;;;;;3.05;64.92;98688.48;1703310;82;21167;-68
2021/03/18 00:11:48;;;;;;;13.85;8.53;;;;;;;3.06;64.70;98690.17;1710885;82;21135;-68
2021/03/18 00:14:19;;;;;;;16.23;8.85;;;;;;;3.05;64.94;98696.80;1730804;82;21363;-68
2021/03/18 00:16:46;;;;;;;17.07;8.15;;;;;;;3.00;65.14;98699.66;1731368;83;21173;-68
2021/03/18 00:19:14;;;;;;;20.12;8.98;;;;;;;3.04;65.08;98704.25;1740048;81;21203;-67
2021/03/18 00:21:41;;;;;;;22.32;8.58;;;;;;;3.01;65.02;98697.42;1731041;81;21194;-68
2021/03/18 00:24:10;;;;;;;22.32;9.48;;;;;;;3.02;65.03;98700.42;1718076;83;21758;-68
2021/03/18 00:26:37;;;;;;;17.75;9.25;;;;;;;3.00;65.24;98690.51;1740104;81;21151;-67
2021/03/18 00:29:05;;;;;;;19.45;9.55;;;;;;;2.97;65.58;98692.45;1761179;81;21202;-67
2021/03/18 00:31:34;;;;;;;19.67;8.65;;;;;;;2.98;65.42;98686.30;1748693;81;21209;-68
2021/03/18 00:34:03;;;;;;;18.40;8.40;;;;;;;2.94;65.50;98690.41;1755856;81;21190;-67
2021/03/18 00:36:30;;;;;;;15.98;7.78;;;;;;;2.95;65.04;98684.70;1729308;81;21746;-68
2021/03/18 00:38:59;;;;;;;17.67;8.00;;;;;;;2.97;65.11;98688.09;1723913;81;21226;-67
2021/03/18 00:41:27;;;;;;;17.15;7.95;;;;;;;2.94;65.05;98691.71;1730719;83;21167;-68
2021/03/18 00:43:54;;;;;;;18.85;8.15;;;;;;;2.94;65.10;98681.70;1704667;81;21144;-68
2021/03/18 00:46:23;;;;;;;17.67;8.33;;;;;;;2.88;65.31;98686.00;1722639;81;21108;-68
2021/03/18 00:48:52;;;;;;;17.73;7.65;;;;;;;2.87;65.29;98681.70;1724058;83;21178;-67
2021/03/18 00:51:19;;;;;;;17.67;7.92;;;;;;;2.85;65.41;98684.39;1734699;81;21223;-67
2021/03/18 00:53:49;;;;;;;15.48;8.63;;;;;;;2.84;65.20;98680.09;1731167;83;21674;-67
2021/03/18 00:56:21;;;;;;;16.80;8.68;;;;;;;2.89;65.07;98687.66;1733213;81;21186;-67
2021/03/18 00:58:50;;;;;;;17.40;7.70;;;;;;;2.88;65.01;98682.08;1755505;81;21179;-67
2021/03/18 01:01:23;;;;;;;18.48;8.25;;;;;;;2.91;64.86;98687.95;1723458;81;21122;-68
2021/03/18 01:03:50;;;;;;;19.35;7.78;;;;;;;2.90;64.80;98686.73;1724047;81;21207;-67
2021/03/18 01:06:24;;;;;;;15.63;7.08;;;;;;;2.91;64.76;98688.42;1730712;83;21189;-67
2021/03/18 01:08:53;;;;;;;17.52;8.08;;;;;;;2.92;64.60;98683.58;1724413;83;21561;-67
2021/03/18 01:11:28;;;;;;;11.75;6.70;;;;;;;2.90;64.67;98680.20;1723612;81;21190;-68
2021/03/18 01:13:59;;;;;;;13.22;7.17;;;;;;;2.92;64.62;98686.20;1701529;84;21189;-67
2021/03/18 01:16:30;;;;;;;15.95;7.00;;;;;;;2.90;64.63;98679.76;1742641;81;21255;-68
2021/03/18 01:19:04;;;;;;;12.50;6.62;;;;;;;2.91;64.54;98679.28;1730176;81;21151;-67
2021/03/18 01:21:40;;;;;;;14.60;6.65;;;;;;;2.89;64.37;98677.20;1730391;83;21143;-68
2021/03/18 01:24:09;;;;;;;14.58;5.97;;;;;;;2.88;64.07;98672.94;1756120;81;21341;-68
2021/03/18 01:26:37;;;;;;;14.38;6.37;;;;;;;2.89;63.89;98674.16;1718046;81;21605;-68
2021/03/18 01:29:04;;;;;;;16.02;6.60;;;;;;;2.86;64.00;98672.17;1737479;81;21186;-68
2021/03/18 01:31:32;;;;;;;15.98;6.20;;;;;;;2.89;63.97;98679.82;1710726;81;21301;-69
2021/03/18 01:34:00;;;;;;;16.32;6.45;;;;;;;2.86;64.08;98681.31;1701569;83;21218;-68
2021/03/18 01:36:28;;;;;;;13.50;6.25;;;;;;;2.84;63.76;98672.70;1733971;81;21165;-68
2021/03/18 01:38:55;;;;;;;16.82;6.75;;;;;;;2.85;63.71;98675.70;1730800;82;21202;-68
2021/03/18 01:41:24;;;;;;;17.20;6.80;;;;;;;2.86;63.61;98669.55;1727512;81;21165;-68
2021/03/18 01:43:51;;;;;;;13.48;6.42;;;;;;;2.87;63.44;98678.61;1735214;81;21181;-68
2021/03/18 01:46:19;;;;;;;15.18;6.75;;;;;;;2.86;63.40;98677.39;1719275;83;21151;-68
2021/03/18 01:48:47;;;;;;;19.65;6.33;;;;;;;2.90;63.20;98669.76;1723191;81;21122;-68
2021/03/18 01:51:16;;;;;;;18.37;6.90;;;;;;;2.88;63.08;98672.94;1702449;83;21549;-68
2021/03/18 01:53:44;;;;;;;16.30;6.67;;;;;;;2.86;62.91;98669.55;1722141;81;21194;-68
2021/03/18 01:56:12;;;;;;;13.20;6.60;;;;;;;2.83;62.95;98683.63;1730126;81;21177;-67
2021/03/18 01:58:42;;;;;;;18.23;7.37;;;;;;;2.83;63.06;98677.58;1730993;83;21201;-67
2021/03/18 02:01:11;;;;;;;14.43;6.92;;;;;;;2.83;62.95;98677.58;1720708;81;21189;-67
2021/03/18 02:03:39;;;;;;;12.47;6.45;;;;;;;2.77;63.16;98673.05;1760886;81;21301;-67
2021/03/18 02:06:07;;;;;;;13.55;6.08;;;;;;;2.77;62.96;98675.66;1716489;81;21164;-67
2021/03/18 02:08:35;;;;;;;14.53;6.28;;;;;;;2.72;63.20;98669.84;1741049;81;21572;-67
2021/03/18 02:11:04;;;;;;;15.00;6.58;;;;;;;2.69;63.25;98670.03;1731295;81;21664;-67
2021/03/18 02:13:32;;;;;;;9.70;5.28;;;;;;;2.64;63.53;98675.14;1739969;81;21190;-66
2021/03/18 02:16:09;;;;;;;12.20;5.60;;;;;;;2.64;63.58;98670.75;1714621;81;22321;-67
2021/03/18 02:19:15;;;;;;;13.15;5.85;;;;;;;2.67;63.62;98675.78;1711131;84;21560;-67
2021/03/18 02:22:04;;;;;;;12.47;6.25;;;;;;;2.62;63.73;98668.23;1716840;82;21329;-67
2021/03/18 02:25:00;;;;;;;14.23;6.05;;;;;;;2.60;63.92;98667.45;1733267;82;21183;-67
2021/03/18 02:28:14;;;;;;;13.48;5.92;;;;;;;2.60;64.05;98673.16;1709168;82;21737;-67
2021/03/18 02:31:08;;;;;;;10.08;5.58;;;;;;;2.62;63.91;98671.28;1663209;85;21360;-68
2021/03/18 02:34:13;;;;;;;12.43;6.47;;;;;;;2.59;64.08;98682.73;1726612;82;21353;-68
2021/03/18 02:36:53;;;;;;;10.60;6.08;;;;;;;2.58;64.31;98686.73;1669575;84;21191;-68
2021/03/18 02:39:26;;;;;;;14.43;6.00;;;;;;;2.55;64.52;98680.39;1692487;82;21146;-68
2021/03/18 02:41:57;;;;;;;14.70;6.37;;;;;;;2.51;64.70;98682.80;1704728;84;21120;-68
2021/03/18 02:44:27;;;;;;;11.90;6.53;;;;;;;2.49;64.71;98677.64;1708927;82;21180;-67
2021/03/18 02:47:05;;;;;;;13.78;6.67;;;;;;;2.52;64.90;98678.80;1713264;82;21130;-68
2021/03/18 02:49:39;;;;;;;12.73;6.53;;;;;;;2.52;64.97;98679.23;1689184;84;21531;-68
2021/03/18 02:52:06;;;;;;;13.38;6.95;;;;;;;2.52;65.03;98686.62;1713681;82;21734;-68
2021/03/18 02:54:34;;;;;;;16.97;6.35;;;;;;;2.49;65.28;98691.16;1692015;82;21210;-68
2021/03/18 02:57:03;;;;;;;13.83;5.85;;;;;;;2.50;65.32;98694.98;1669570;84;21219;-68
2021/03/18 02:59:35;;;;;;;15.08;6.00;;;;;;;2.50;65.48;98688.94;1669298;84;21187;-68
2021/03/18 03:02:05;;;;;;;13.43;6.40;;;;;;;2.50;65.54;98698.08;1670968;85;21257;-68
2021/03/18 03:04:38;;;;;;;14.43;6.25;;;;;;;2.49;65.61;98688.55;1670854;84;21198;-68
2021/03/18 03:07:07;;;;;;;13.45;6.00;;;;;;;2.48;65.75;98692.08;1703385;84;22034;-68
2021/03/18 03:09:34;;;;;;;15.43;6.33;;;;;;;2.51;65.79;98691.46;1656038;84;21656;-68
2021/03/18 03:12:02;;;;;;;13.08;6.53;;;;;;;2.46;65.97;98690.39;1699568;82;21191;-68
2021/03/18 03:14:30;;;;;;;18.50;6.75;;;;;;;2.49;65.96;98700.30;1671135;84;21640;-68
2021/03/18 03:17:00;;;;;;;14.43;6.35;;;;;;;2.47;66.00;98699.08;1662371;82;21181;-69
2021/03/18 03:19:29;;;;;;;13.10;7.05;;;;;;;2.50;66.00;98695.46;1715738;82;21178;-68
2021/03/18 03:21:56;;;;;;;13.83;7.00;;;;;;;2.48;66.07;98702.05;1709605;84;21151;-68
2021/03/18 03:24:24;;;;;;;13.98;7.12;;;;;;;2.43;66.22;98701.01;1720125;82;21194;-68
2021/03/18 03:26:53;;;;;;;13.22;6.45;;;;;;;2.44;66.30;98705.31;1714888;84;21193;-68
2021/03/18 03:29:20;;;;;;;12.18;7.28;;;;;;;2.40;66.40;98698.55;1719864;82;21184;-68
2021/03/18 03:31:48;;;;;;;13.13;6.50;;;;;;;2.38;66.52;98701.72;1723935;81;21181;-68
2021/03/18 03:34:16;;;;;;;15.63;7.50;;;;;;;2.33;66.71;98703.73;1709554;84;21191;-68
2021/03/18 03:36:45;;;;;;;15.03;7.40;;;;;;;2.30;66.82;98713.01;1726550;82;21162;-68
2021/03/18 03:39:12;;;;;;;15.28;6.83;;;;;;;2.26;66.95;98703.67;1744677;82;21642;-68
2021/03/18 03:41:39;;;;;;;13.05;6.55;;;;;;;2.24;67.30;98711.58;1744235;82;21187;-68
2021/03/18 03:44:07;;;;;;;15.75;6.90;;;;;;;2.23;67.42;98715.58;1728321;82;21190;-68
2021/03/18 03:46:34;;;;;;;13.50;6.05;;;;;;;2.17;67.75;98716.73;1710174;84;21155;-68
2021/03/18 03:49:04;;;;;;;13.30;6.92;;;;;;;2.18;67.95;98720.20;1709608;82;21316;-68
2021/03/18 03:51:46;;;;;;;16.10;7.60;;;;;;;1.82;68.12;98675.09;1740344;82;21195;-68
2021/03/18 03:54:14;;;;;;;19.10;6.70;;;;;;;2.12;68.34;98724.81;1744164;82;21191;-68
2021/03/18 03:56:56;;;;;;;14.33;6.78;;;;;;;2.04;68.65;98721.74;1692113;82;21620;-68
2021/03/18 03:59:24;;;;;;;15.65;8.13;;;;;;;2.03;69.05;98724.44;1744611;82;22164;-68
2021/03/18 04:01:55;;;;;;;15.00;8.03;;;;;;;1.96;69.38;98722.61;1727778;82;21100;-68
2021/03/18 04:04:34;;;;;;;16.70;8.20;;;;;;;1.95;69.78;98729.58;1727973;82;21576;-68
2021/03/18 04:07:05;;;;;;;16.35;8.53;;;;;;;2.07;69.72;98732.03;1712606;82;21171;-68
2021/03/18 04:09:33;;;;;;;18.82;9.15;;;;;;;2.04;70.00;98736.09;1736768;82;21185;-68
2021/03/18 04:12:01;;;;;;;19.12;9.25;;;;;;;1.97;70.27;98741.26;1744278;82;21151;-68
2021/03/18 04:14:32;;;;;;;14.15;7.90;;;;;;;1.94;70.51;98747.91;1712843;82;21319;-68
2021/03/18 04:17:06;;;;;;;13.90;7.83;;;;;;;2.01;70.67;98739.30;1749959;82;21175;-68
2021/03/18 04:19:35;;;;;;;12.40;8.60;;;;;;;2.10;70.77;98737.08;1718701;81;21133;-68
2021/03/18 04:24:01;;;;;;;16.20;8.93;;;;;;;2.03;71.39;98738.30;1779600;79;23187;-68
2021/03/18 04:26:30;;;;;;;13.78;8.43;;;;;;;1.92;71.63;98743.26;1744293;82;21304;-69
2021/03/18 04:28:58;;;;;;;14.70;9.60;;;;;;;1.90;71.86;98742.48;1759093;80;21669;-69
2021/03/18 04:31:25;;;;;;;18.73;9.58;;;;;;;2.07;71.71;98741.61;1755707;82;21154;-68
2021/03/18 04:33:53;;;;;;;16.87;8.70;;;;;;;2.13;71.59;98744.73;1761160;80;21556;-69
2021/03/18 04:36:20;;;;;;;16.20;8.70;;;;;;;2.09;71.81;98751.51;1782665;80;21176;-69
2021/03/18 04:38:47;;;;;;;14.50;8.93;;;;;;;2.03;72.00;98748.73;1753260;82;21151;-68
2021/03/18 04:41:15;;;;;;;15.80;7.78;;;;;;;1.99;72.31;98748.52;1755328;82;21159;-69
2021/03/18 04:43:42;;;;;;;12.85;8.35;;;;;;;2.09;72.39;98753.64;1755979;82;21601;-68
2021/03/18 04:46:10;;;;;;;14.18;8.10;;;;;;;2.20;72.14;98754.85;1752693;81;21196;-68
2021/03/18 04:48:40;;;;;;;17.48;8.93;;;;;;;2.17;72.32;98749.81;1724403;82;21726;-69
2021/03/18 04:51:08;;;;;;;14.55;8.35;;;;;;;2.12;72.40;98757.41;1723066;82;21171;-69
2021/03/18 04:53:37;;;;;;;18.35;8.03;;;;;;;2.05;72.78;98759.95;1747527;82;21309;-69
2021/03/18 04:56:06;;;;;;;16.37;7.90;;;;;;;2.11;72.89;98762.25;1755891;82;21155;-68
2021/03/18 04:58:37;;;;;;;14.35;8.23;;;;;;;2.25;72.60;98759.37;1747524;82;21189;-69
2021/03/18 05:01:05;;;;;;;19.62;9.43;;;;;;;2.17;72.82;98761.08;1728947;82;21786;-69
2021/03/18 05:03:34;;;;;;;16.57;9.45;;;;;;;2.09;73.14;98767.99;1722823;81;21148;-68
2021/03/18 05:06:04;;;;;;;19.42;8.90;;;;;;;2.10;73.30;98773.59;1739208;82;21574;-68
2021/03/18 05:08:32;;;;;;;18.42;9.75;;;;;;;2.27;73.12;98773.19;1721778;83;21177;-69
2021/03/18 05:10:59;;;;;;;17.77;8.93;;;;;;;2.29;73.12;98770.05;1725188;82;21154;-69
2021/03/18 05:13:27;;;;;;;16.65;8.73;;;;;;;2.21;73.63;98765.23;1734712;82;21141;-70
2021/03/18 05:15:55;;;;;;;22.27;11.68;;;;;;;2.17;73.75;98780.64;1714111;83;21135;-69
2021/03/18 05:18:23;;;;;;;22.25;12.58;;;;;;;2.22;73.78;98775.20;1717991;82;21126;-69
2021/03/18 05:20:50;;;;;;;29.72;16.35;;;;;;;2.38;73.50;98771.31;1721020;82;22332;-69
2021/03/18 05:23:17;;;;;;;26.75;15.78;;;;;;;2.37;73.64;98773.09;1703586;82;21180;-69
2021/03/18 05:25:46;;;;;;;17.70;11.28;;;;;;;2.36;73.72;98777.92;1736829;82;21155;-69
2021/03/18 05:28:15;;;;;;;17.42;9.60;;;;;;;2.35;73.80;98773.62;1714798;82;21336;-69
2021/03/18 05:30:42;;;;;;;20.75;9.60;;;;;;;2.49;73.55;98775.98;1713422;82;21737;-69
2021/03/18 05:33:09;;;;;;;20.70;11.15;;;;;;;2.58;73.41;98782.02;1742310;82;21341;-68
2021/03/18 05:35:40;;;;;;;19.73;10.70;;;;;;;2.50;73.59;98789.42;1705507;82;21627;-69
2021/03/18 05:38:09;;;;;;;19.82;10.65;;;;;;;2.46;73.76;98790.87;1717331;82;21670;-69
2021/03/18 05:40:37;;;;;;;25.37;10.50;;;;;;;2.50;73.78;98786.81;1714612;84;21170;-68
2021/03/18 05:43:05;;;;;;;20.72;10.63;;;;;;;2.70;73.38;98787.90;1697038;82;21682;-66
2021/03/18 05:45:33;;;;;;;16.42;10.60;;;;;;;2.69;73.20;98797.95;1717037;82;21154;-68
2021/03/18 05:48:00;;;;;;;18.85;9.63;;;;;;;2.63;73.38;98799.58;1707057;84;21167;-68
2021/03/18 05:50:29;;;;;;;21.50;9.70;;;;;;;2.62;73.54;98799.19;1715151;82;21155;-67
2021/03/18 05:52:56;;;;;;;17.35;9.93;;;;;;;2.69;73.31;98799.27;1741686;82;21124;-67
2021/03/18 05:55:24;;;;;;;18.23;9.65;;;;;;;2.85;72.68;98804.52;1742711;82;21579;-67
2021/03/18 05:57:51;;;;;;;15.30;9.45;;;;;;;2.85;72.46;98806.27;1725661;82;21159;-67
2021/03/18 06:00:20;;;;;;;17.80;9.70;;;;;;;2.81;72.44;98809.98;1704149;83;21633;-69
2021/03/18 06:02:50;;;;;;;19.10;8.80;;;;;;;2.75;72.29;98802.85;1696164;84;21334;-68
2021/03/18 06:05:19;;;;;;;14.78;9.15;;;;;;;2.84;72.18;98809.80;1706301;83;21465;-69
2021/03/18 06:07:48;;;;;;;18.50;9.28;;;;;;;2.94;71.72;98813.16;1700447;83;21175;-68
2021/03/18 06:10:21;;;;;;;19.52;10.45;;;;;;;2.88;71.69;98815.27;1692228;84;21188;-68
2021/03/18 06:12:54;;;;;;;20.80;10.35;;;;;;;2.84;71.83;98820.25;1707173;84;21219;-69
2021/03/18 06:15:22;;;;;;;22.52;10.28;;;;;;;2.83;71.88;98819.41;1708982;84;21151;-69
2021/03/18 06:17:50;;;;;;;20.77;10.32;;;;;;;3.03;71.66;98822.27;1709768;84;21171;-69
2021/03/18 06:20:23;;;;;;;22.98;10.70;;;;;;;3.07;71.70;98824.23;1707043;83;21314;-69
2021/03/18 06:22:51;;;;;;;21.75;11.12;;;;;;;3.03;71.74;98830.55;1698845;83;21560;-68
2021/03/18 06:25:29;;;;;;;19.87;10.32;;;;;;;3.00;71.90;98831.56;1723218;83;21155;-68
2021/03/18 06:28:19;;;;;;;19.45;11.45;;;;;;;3.11;71.67;98817.94;1723351;83;21643;-69
2021/03/18 06:31:13;;;;;;;19.25;11.20;;;;;;;3.24;71.49;98826.77;1722750;83;21159;-69
2021/03/18 06:33:50;;;;;;;24.82;11.93;;;;;;;3.23;71.41;98829.47;1722411;83;21683;-69
2021/03/18 06:36:32;;;;;;;17.48;9.30;;;;;;;3.04;71.58;98795.67;1723111;82;21162;-69
2021/03/18 06:39:10;;;;;;;21.57;9.38;;;;;;;3.37;71.12;98825.63;1717132;83;21155;-69
2021/03/18 06:41:43;;;;;;;16.07;10.20;;;;;;;3.56;70.08;98825.44;1723066;83;21143;-69
2021/03/18 06:44:28;;;;;;;18.75;10.50;;;;;;;3.58;70.11;98827.96;1720585;83;21172;-69
2021/03/18 06:47:08;;;;;;;16.97;9.73;;;;;;;3.56;70.08;98825.92;1706683;83;21155;-69
2021/03/18 06:49:37;;;;;;;16.30;10.20;;;;;;;3.46;70.19;98828.67;1707682;83;21141;-69
2021/03/18 06:52:14;;;;;;;17.12;10.53;;;;;;;3.47;70.14;98836.90;1711396;84;21200;-69
2021/03/18 06:54:43;;;;;;;19.50;10.23;;;;;;;3.62;69.71;98825.58;1717494;83;21288;-69
2021/03/18 06:57:11;;;;;;;19.27;10.43;;;;;;;3.55;69.90;98832.07;1717601;83;21145;-67
2021/03/18 06:59:42;;;;;;;21.68;10.45;;;;;;;3.53;69.83;98833.91;1713901;83;21597;-69
2021/03/18 07:02:17;;;;;;;16.10;9.45;;;;;;;3.51;69.45;98826.17;1711367;84;21181;-69
2021/03/18 07:04:53;;;;;;;18.65;9.75;;;;;;;3.57;69.32;98833.67;1711753;83;21701;-69
2021/03/18 07:07:25;;;;;;;20.27;10.60;;;;;;;3.80;68.98;98830.22;1711522;84;21589;-69
2021/03/18 07:09:54;;;;;;;18.35;10.93;;;;;;;3.85;68.49;98833.86;1712078;83;21302;-69
2021/03/18 07:12:29;;;;;;;19.30;10.63;;;;;;;3.82;68.65;98834.88;1712230;83;21173;-69
2021/03/18 07:14:59;;;;;;;17.27;10.08;;;;;;;3.83;68.75;98838.36;1712077;83;21158;-69
2021/03/18 07:17:35;;;;;;;17.52;10.03;;;;;;;3.84;68.64;98841.36;1723198;83;21198;-68
2021/03/18 07:20:19;;;;;;;19.45;10.28;;;;;;;4.05;68.53;98838.81;1722233;83;21115;-68
2021/03/18 07:22:51;;;;;;;23.92;12.65;;;;;;;4.22;67.78;98829.97;1709845;83;22939;-68
2021/03/18 07:25:25;;;;;;;20.77;12.03;;;;;;;4.29;67.97;98834.37;1711650;83;21318;-68
2021/03/18 07:28:01;;;;;;;20.43;11.25;;;;;;;4.36;68.14;98831.77;1717620;83;21163;-67
2021/03/18 07:30:35;;;;;;;21.85;10.28;;;;;;;4.48;67.81;98831.98;1710297;83;21321;-67
2021/03/18 07:33:04;;;;;;;17.82;9.43;;;;;;;4.59;66.58;98842.63;1711261;83;21275;-68
2021/03/18 07:35:34;;;;;;;15.93;9.40;;;;;;;4.62;65.86;98835.91;1701818;83;21148;-68
2021/03/18 07:38:01;;;;;;;20.55;10.13;;;;;;;4.74;65.79;98828.63;1696598;84;21162;-69
2021/03/18 07:40:29;;;;;;;16.80;9.93;;;;;;;4.72;65.67;98833.58;1700598;83;21204;-69
2021/03/18 07:42:58;;;;;;;19.60;9.58;;;;;;;4.72;65.37;98829.66;1710914;83;21589;-69
2021/03/18 07:45:26;;;;;;;18.02;8.93;;;;;;;4.73;65.20;98832.63;1700311;84;21121;-69
2021/03/18 07:47:55;;;;;;;17.57;9.23;;;;;;;4.72;64.44;98829.66;1701313;83;21590;-69
2021/03/18 07:50:30;;;;;;;18.65;8.90;;;;;;;4.73;64.25;98830.00;1701639;84;21184;-69
2021/03/18 07:52:58;;;;;;;17.17;7.95;;;;;;;4.76;64.32;98839.00;1701337;84;21201;-67
2021/03/18 07:55:25;;;;;;;14.70;8.18;;;;;;;4.77;63.22;98831.52;1701387;84;21184;-67
2021/03/18 07:57:53;;;;;;;15.48;7.33;;;;;;;4.68;63.27;98836.85;1683894;84;21628;-67
2021/03/18 08:00:23;;;;;;;14.43;7.37;;;;;;;4.66;63.11;98823.47;1701104;83;21213;-68
2021/03/18 08:02:52;;;;;;;13.95;8.70;;;;;;;4.72;63.38;98825.73;1701037;83;21570;-68
2021/03/18 08:05:39;;;;;;;18.65;8.55;;;;;;;4.66;63.48;98831.33;1701200;84;21641;-69
2021/03/18 08:08:07;;;;;;;21.77;8.73;;;;;;;4.60;63.70;98832.53;1701083;84;21328;-69
2021/03/18 08:10:41;;;;;;;42.98;25.95;;;;;;;4.52;64.15;98836.09;1687663;84;21328;-69
2021/03/18 08:13:08;;;;;;;156.37;71.87;;;;;;;4.51;64.16;98840.46;1701170;84;21223;-69
2021/03/18 08:15:45;;;;;;;143.02;64.92;;;;;;;4.52;64.12;98838.70;1701093;84;21327;-69
2021/03/18 08:18:22;;;;;;;40.03;22.32;;;;;;;4.50;64.28;98830.09;1700949;83;21271;-69
2021/03/18 08:20:57;;;;;;;15.25;9.23;;;;;;;4.62;64.13;98846.83;1686360;85;21201;-68
2021/03/18 08:23:32;;;;;;;15.28;8.08;;;;;;;4.88;62.67;98842.64;1699644;83;21221;-71
2021/03/18 08:26:03;;;;;;;17.70;7.95;;;;;;;4.87;62.04;98844.43;1695619;84;21154;-68
2021/03/18 08:28:42;;;;;;;12.98;7.72;;;;;;;4.80;61.73;98847.52;1695786;84;21153;-68
2021/03/18 08:31:15;;;;;;;14.90;7.33;;;;;;;4.79;60.89;98840.59;1695997;84;21185;-68
2021/03/18 08:33:52;;;;;;;12.93;7.20;;;;;;;4.75;60.95;98835.52;1695675;84;21177;-68
2021/03/18 08:36:24;;;;;;;16.30;7.37;;;;;;;4.81;61.59;98836.08;1695528;83;21346;-69
2021/03/18 08:38:59;;;;;;;16.12;5.97;;;;;;;4.89;61.38;98827.30;1695779;84;21166;-69
2021/03/18 08:41:43;;;;;;;14.03;6.42;;;;;;;5.05;59.18;98839.83;1696078;84;21184;-69
2021/03/18 08:44:31;;;;;;;13.98;6.20;;;;;;;5.10;59.35;98840.83;1695573;84;21165;-69
2021/03/18 08:47:05;;;;;;;10.43;5.30;;;;;;;5.10;58.36;98844.77;1695767;84;21335;-67
2021/03/18 08:49:40;;;;;;;11.63;5.55;;;;;;;5.16;56.88;98833.08;1695840;84;21117;-67
2021/03/18 08:52:11;;;;;;;13.83;6.25;;;;;;;5.18;56.80;98837.73;1695354;84;21145;-67
2021/03/18 08:54:49;;;;;;;10.58;6.00;;;;;;;5.18;57.11;98846.45;1695748;84;21153;-67
2021/03/18 08:57:29;;;;;;;10.88;5.85;;;;;;;5.17;57.64;98854.42;1695877;84;21666;-67
2021/03/18 09:00:18;;;;;;;12.98;6.50;;;;;;;5.17;58.21;98849.18;1695364;84;21160;-67
2021/03/18 09:02:47;;;;;;;10.35;5.45;;;;;;;5.17;57.55;98846.08;1695479;84;21315;-67
2021/03/18 09:05:18;;;;;;;39.60;22.73;;;;;;;5.15;57.47;98857.59;1695710;84;21178;-68
2021/03/18 09:08:07;;;;;;;30.12;15.65;;;;;;;5.13;56.26;98851.59;1695443;84;21268;-68
2021/03/18 09:10:36;;;;;;;275.38;129.60;;;;;;;5.16;56.00;98847.01;1695621;84;21317;-68
2021/03/18 09:13:17;;;;;;;24.70;11.63;;;;;;;5.26;56.30;98838.11;1695806;84;21208;-68
2021/03/18 09:15:46;;;;;;;9.55;5.50;;;;;;;5.30;56.26;98848.77;1695878;84;21172;-67
2021/03/18 09:18:29;;;;;;;10.28;5.70;;;;;;;5.29;56.75;98844.45;1695756;84;21209;-68
2021/03/18 09:20:59;;;;;;;15.43;6.42;;;;;;;5.32;56.68;98846.91;1696091;84;21165;-67
2021/03/18 09:23:30;;;;;;;11.35;6.17;;;;;;;5.38;56.91;98849.14;1696633;83;21219;-67
2021/03/18 09:26:00;;;;;;;131.15;67.97;;;;;;;5.44;57.71;98845.76;1689413;84;21153;-67
2021/03/18 09:28:37;;;;;;;111.30;61.68;;;;;;;5.44;59.30;98833.95;1713533;83;21311;-68
2021/03/18 09:31:05;;;;;;;104.47;60.73;;;;;;;5.44;59.52;98844.45;1702211;83;21108;-68
2021/03/18 09:33:40;;;;;;;47.20;33.15;;;;;;;5.38;60.17;98841.73;1701046;83;21165;-68
2021/03/18 09:36:20;;;;;;;14.28;10.25;;;;;;;5.33;61.03;98842.48;1700974;84;21303;-68
2021/03/18 09:39:10;;;;;;;14.50;7.45;;;;;;;5.35;63.19;98850.63;1700938;84;21176;-68
2021/03/18 09:41:42;;;;;;;13.45;7.60;;;;;;;5.55;64.16;98840.64;1701155;84;21193;-67
2021/03/18 09:44:15;;;;;;;15.75;7.33;;;;;;;5.55;63.77;98845.89;1700900;84;21339;-66
2021/03/18 09:46:50;;;;;;;16.00;9.58;;;;;;;5.52;63.78;98850.03;1690705;84;21190;-67
2021/03/18 09:49:33;;;;;;;124.50;46.40;;;;;;;5.45;63.97;98851.34;1693427;84;21121;-68
2021/03/18 09:52:08;;;;;;;65.22;28.32;;;;;;;5.40;64.44;98845.10;1695600;84;21147;-68
2021/03/18 09:54:36;;;;;;;55.85;23.27;;;;;;;5.44;64.86;98852.31;1706790;84;21203;-68
2021/03/18 09:57:07;;;;;;;36.68;16.05;;;;;;;5.51;64.55;98847.03;1701292;83;21168;-68
2021/03/18 09:59:35;;;;;;;17.95;9.35;;;;;;;5.57;64.48;98846.64;1696590;84;21301;-68
2021/03/18 10:02:04;;;;;;;22.45;12.78;;;;;;;5.68;64.14;98849.91;1709949;83;21180;-67
2021/03/18 10:04:39;;;;;;;37.15;29.80;;;;;;;5.79;62.69;98850.50;1699007;84;21182;-68
2021/03/18 10:07:07;;;;;;;15.15;8.75;;;;;;;5.76;61.80;98852.86;1710248;84;21274;-67
2021/03/18 10:09:42;;;;;;;11.28;7.17;;;;;;;5.62;61.46;98860.78;1710075;84;21198;-67
2021/03/18 10:12:14;;;;;;;12.30;7.12;;;;;;;5.46;61.44;98858.28;1709997;84;22209;-67
2021/03/18 10:14:51;;;;;;;12.25;7.47;;;;;;;5.31;62.88;98863.56;1687816;84;21157;-67
2021/03/18 10:17:36;;;;;;;12.70;6.37;;;;;;;5.27;62.98;98863.39;1701201;84;21113;-67
2021/03/18 10:20:26;;;;;;;12.82;6.15;;;;;;;5.26;62.76;98860.39;1686288;85;21186;-67
2021/03/18 10:23:03;;;;;;;13.03;6.47;;;;;;;5.20;62.62;98864.70;1701976;83;21136;-68
2021/03/18 10:25:34;;;;;;;14.20;8.93;;;;;;;5.18;63.09;98867.88;1703087;83;21103;-67
2021/03/18 10:28:11;;;;;;;15.05;8.10;;;;;;;5.19;62.76;98859.08;1709499;83;21183;-67
2021/03/18 10:30:44;;;;;;;15.43;8.40;;;;;;;5.12;61.92;98859.11;1709594;84;21180;-67
2021/03/18 10:33:23;;;;;;;17.85;13.98;;;;;;;5.08;61.50;98858.45;1779409;79;23086;-67
2021/03/18 10:35:58;;;;;;;17.05;13.10;;;;;;;5.01;60.79;98868.92;1737071;82;21186;-68
2021/03/18 10:38:38;;;;;;;13.93;7.65;;;;;;;5.00;61.55;98863.30;1636198;87;21209;-68
2021/03/18 10:41:12;;;;;;;11.68;5.80;;;;;;;5.02;61.60;98870.14;1656342;87;21652;-68
2021/03/18 10:43:44;;;;;;;12.47;6.70;;;;;;;5.06;61.79;98875.59;1668018;85;22154;-68
2021/03/18 10:46:16;;;;;;;9.43;6.72;;;;;;;5.03;62.55;98875.76;1684207;85;21223;-68
2021/03/18 10:48:49;;;;;;;10.08;6.97;;;;;;;4.98;63.35;98885.68;1684606;85;21869;-67
2021/03/18 10:51:18;;;;;;;12.15;7.08;;;;;;;5.13;63.31;98879.11;1684737;85;21620;-67
2021/03/18 10:53:52;;;;;;;15.98;6.87;;;;;;;5.14;62.72;98876.88;1672064;85;21198;-67
2021/03/18 10:56:28;;;;;;;14.30;8.08;;;;;;;5.07;63.17;98874.63;1657045;85;21210;-68
2021/03/18 10:59:12;;;;;;;10.80;7.17;;;;;;;5.11;63.49;98886.25;1667836;85;21677;-67
2021/03/18 11:01:39;;;;;;;14.18;8.00;;;;;;;5.14;62.18;98875.11;1659948;85;21227;-67
2021/03/18 11:04:09;;;;;;;13.18;7.45;;;;;;;5.10;62.05;98876.22;1673620;84;22268;-67
2021/03/18 11:06:50;;;;;;;13.70;7.78;;;;;;;5.04;62.96;98879.23;1650654;87;21623;-67
2021/03/18 11:09:18;;;;;;;13.60;7.17;;;;;;;4.91;63.22;98872.57;1680877;85;21184;-67
2021/03/18 11:11:58;;;;;;;10.18;6.90;;;;;;;4.84;63.88;98888.31;1650994;87;21618;-67
2021/03/18 11:14:30;;;;;;;10.15;7.33;;;;;;;4.74;63.68;98877.08;1651200;87;21373;-67
2021/03/18 11:17:03;;;;;;;12.03;7.55;;;;;;;4.68;64.35;98880.06;1651269;87;21189;-67
2021/03/18 11:19:32;;;;;;;13.55;8.10;;;;;;;4.89;64.23;98868.74;1651098;87;21312;-67
2021/03/18 11:22:03;;;;;;;12.88;7.67;;;;;;;5.07;63.94;98868.08;1673855;85;21324;-67
2021/03/18 11:24:30;;;;;;;18.27;10.45;;;;;;;5.11;63.47;98866.11;1676948;85;21464;-67
2021/03/18 11:27:01;;;;;;;17.73;10.72;;;;;;;5.14;62.97;98865.08;1678957;85;21146;-67
2021/03/18 11:29:32;;;;;;;18.67;8.20;;;;;;;5.17;62.72;98863.59;1678719;85;21192;-67
2021/03/18 11:32:02;;;;;;;15.28;7.80;;;;;;;5.20;62.74;98864.70;1673583;85;21468;-67
2021/03/18 11:34:36;;;;;;;12.45;7.78;;;;;;;5.24;61.77;98874.05;1652686;86;21163;-67
2021/03/18 11:37:07;;;;;;;12.60;7.80;;;;;;;5.23;61.57;98864.50;1699350;84;21639;-67
2021/03/18 11:39:35;;;;;;;14.63;8.05;;;;;;;5.22;62.18;98860.22;1709665;84;21167;-67
2021/03/18 11:42:03;;;;;;;11.80;7.83;;;;;;;5.23;62.46;98864.05;1710399;84;21175;-67
2021/03/18 11:44:31;;;;;;;11.30;7.58;;;;;;;5.21;62.59;98870.33;1708088;84;21167;-67
2021/03/18 11:47:00;;;;;;;11.95;6.85;;;;;;;5.14;63.22;98869.02;1709764;84;21152;-67
2021/03/18 11:49:28;;;;;;;10.88;7.45;;;;;;;5.06;63.11;98861.17;1709683;84;21187;-67
2021/03/18 11:51:56;;;;;;;17.15;9.30;;;;;;;5.02;63.11;98870.14;1709906;84;21652;-68
2021/03/18 11:54:23;;;;;;;21.00;14.38;;;;;;;4.99;62.99;98869.52;1703251;84;21148;-68
2021/03/18 11:56:51;;;;;;;29.67;21.93;;;;;;;4.99;62.31;98866.41;1686308;84;21159;-68